Time;durP1;ratioP1;P1;durP2;ratioP2;P2;SDS_P1;SDS_P2;PMS_P1;PMS_P2;Temp;Humidity;BMP_temperature;BMP_pressure;BME280_temperature;BME280_humidity;BME280_pressure;Samples;Min_cycle;Max_cycle;Signal;HPM_P1;HPM_P2
2023/12/28 00:02:03;;;;;;;;;;;;;;;;;;4985939;28;20273;-85
2023/12/28 00:04:29;;;;;;;;;;;;;;;;;;5001357;28;19949;-86
2023/12/28 00:06:54;;;;;;;;;;;;;;;;;;4987883;28;20087;-87
2023/12/28 00:09:20;;;;;;;;;;;;;;;;;;4989342;28;19914;-87
2023/12/28 00:11:46;;;;;;;;;;;;;;;;;;5004167;28;19961;-88
2023/12/28 00:14:13;;;;;;;;;;;;;;;;;;5004951;28;19909;-88
2023/12/28 00:16:42;;;;;;;;;;;;;;;;;;5013532;28;19925;-87
2023/12/28 00:19:07;;;;;;;;;;;;;;;;;;5006958;28;19914;-87
2023/12/28 00:21:36;;;;;;;;;;;;;;;;;;5003986;28;19924;-87
2023/12/28 00:24:01;;;;;;;;;;;;;;;;;;4999711;28;19918;-87
2023/12/28 00:26:29;;;;;;;;;;;;;;;;;;4997142;28;19946;-85
2023/12/28 00:28:54;;;;;;;;;;;;;;;;;;4972908;28;19914;-84
2023/12/28 00:31:20;;;;;;;;;;;;;;;;;;5000145;28;19914;-85
2023/12/28 00:33:50;;;;;;;;;;;;;;;;;;5007540;28;19918;-86
2023/12/28 00:36:15;;;;;;;;;;;;;;;;;;5005570;28;19930;-88
2023/12/28 00:38:40;;;;;;;;;;;;;;;;;;4989200;28;19949;-87
2023/12/28 00:41:06;;;;;;;;;;;;;;;;;;4974205;28;20399;-90
2023/12/28 00:43:31;;;;;;;;;;;;;;;;;;5000643;28;19918;-90
2023/12/28 00:45:56;;;;;;;;;;;;;;;;;;5001417;28;19918;-90
2023/12/28 00:48:21;;;;;;;;;;;;;;;;;;5000914;28;19918;-89
2023/12/28 00:50:47;;;;;;;;;;;;;;;;;;4997078;28;19918;-87
2023/12/28 00:53:15;;;;;;;;;;;;;;;;;;4999914;28;19937;-88
2023/12/28 00:55:41;;;;;;;;;;;;;;;;;;4973429;28;19961;-87
2023/12/28 00:58:10;;;;;;;;;;;;;;;;;;4984570;28;19997;-89
2023/12/28 01:00:35;;;;;;;;;;;;;;;;;;5003844;28;20292;-88
2023/12/28 01:03:01;;;;;;;;;;;;;;;;;;4988069;28;19949;-85
2023/12/28 01:05:29;;;;;;;;;;;;;;;;;;4999800;28;20362;-85
2023/12/28 01:07:54;;;;;;;;;;;;;;;;;;5011182;28;19997;-86
2023/12/28 01:10:22;;;;;;;;;;;;;;;;;;5006658;28;19971;-86
2023/12/28 01:12:47;;;;;;;;;;;;;;;;;;5005955;28;19913;-85
2023/12/28 01:15:13;;;;;;;;;;;;;;;;;;5003851;28;19997;-85
2023/12/28 01:17:38;;;;;;;;;;;;;;;;;;5003484;28;19922;-88
2023/12/28 01:20:04;;;;;;;;;;;;;;;;;;4972582;28;19914;-85
2023/12/28 01:22:32;;;;;;;;;;;;;;;;;;4986874;28;19925;-84
2023/12/28 01:24:57;;;;;;;;;;;;;;;;;;4993476;28;19980;-84
2023/12/28 01:27:25;;;;;;;;;;;;;;;;;;4997715;28;19933;-85
2023/12/28 01:29:51;;;;;;;;;;;;;;;;;;5000514;28;19923;-85
2023/12/28 01:32:16;;;;;;;;;;;;;;;;;;5002091;28;19926;-88
2023/12/28 01:34:42;;;;;;;;;;;;;;;;;;4998204;28;19913;-85
2023/12/28 01:37:10;;;;;;;;;;;;;;;;;;4994872;28;19929;-87
2023/12/28 01:39:36;;;;;;;;;;;;;;;;;;4978593;28;19922;-88
2023/12/28 01:42:01;;;;;;;;;;;;;;;;;;4979004;28;19925;-85
2023/12/28 01:44:29;;;;;;;;;;;;;;;;;;4962090;28;20093;-87
2023/12/28 01:46:54;;;;;;;;;;;;;;;;;;4978629;28;20359;-85
2023/12/28 01:49:20;;;;;;;;;;;;;;;;;;4978164;28;19918;-88
2023/12/28 01:51:45;;;;;;;;;;;;;;;;;;4961326;28;19958;-88
2023/12/28 01:54:10;;;;;;;;;;;;;;;;;;4945488;28;19914;-86
2023/12/28 01:56:38;;;;;;;;;;;;;;;;;;4978364;28;19982;-86
2023/12/28 01:59:06;;;;;;;;;;;;;;;;;;4961652;28;20023;-86
2023/12/28 02:01:32;;;;;;;;;;;;;;;;;;4959902;28;19914;-86
2023/12/28 02:03:57;;;;;;;;;;;;;;;;;;4944406;28;19914;-86
2023/12/28 02:06:22;;;;;;;;;;;;;;;;;;4958199;28;19995;-86
2023/12/28 02:08:48;;;;;;;;;;;;;;;;;;4962216;28;19918;-88
2023/12/28 02:11:14;;;;;;;;;;;;;;;;;;4977129;28;19942;-87
2023/12/28 02:13:43;;;;;;;;;;;;;;;;;;4957452;28;19922;-88
2023/12/28 02:16:12;;;;;;;;;;;;;;;;;;4973152;28;19914;-86
2023/12/28 02:18:40;;;;;;;;;;;;;;;;;;4941208;28;20039;-87
2023/12/28 02:21:05;;;;;;;;;;;;;;;;;;4972710;28;20013;-88
2023/12/28 02:23:36;;;;;;;;;;;;;;;;;;4973632;28;21848;-87
2023/12/28 02:26:02;;;;;;;;;;;;;;;;;;4973877;28;19933;-88
2023/12/28 02:28:27;;;;;;;;;;;;;;;;;;4971820;28;19913;-86
2023/12/28 02:30:52;;;;;;;;;;;;;;;;;;4972111;28;19918;-88
2023/12/28 02:33:18;;;;;;;;;;;;;;;;;;4937857;28;19917;-87
2023/12/28 02:35:43;;;;;;;;;;;;;;;;;;4955179;28;19932;-86
2023/12/28 02:38:09;;;;;;;;;;;;;;;;;;4956789;28;19988;-86
2023/12/28 02:40:36;;;;;;;;;;;;;;;;;;4975213;28;19922;-86
2023/12/28 02:43:02;;;;;;;;;;;;;;;;;;4988485;28;20359;-86
2023/12/28 02:45:27;;;;;;;;;;;;;;;;;;4984573;28;19918;-90
2023/12/28 02:47:52;;;;;;;;;;;;;;;;;;4971934;28;19920;-89
2023/12/28 02:50:18;;;;;;;;;;;;;;;;;;4990276;28;19960;-87
2023/12/28 02:52:45;;;;;;;;;;;;;;;;;;4990521;28;19945;-86
2023/12/28 02:55:10;;;;;;;;;;;;;;;;;;4990393;28;19922;-88
2023/12/28 02:57:37;;;;;;;;;;;;;;;;;;4989249;28;19928;-87
2023/12/28 03:00:04;;;;;;;;;;;;;;;;;;4975059;28;19929;-88
2023/12/28 03:02:29;;;;;;;;;;;;;;;;;;4974928;28;19918;-90
2023/12/28 03:04:55;;;;;;;;;;;;;;;;;;4990620;28;20279;-87
2023/12/28 03:07:20;;;;;;;;;;;;;;;;;;4974130;28;19929;-88
2023/12/28 03:09:45;;;;;;;;;;;;;;;;;;4990534;28;19984;-85
2023/12/28 03:12:11;;;;;;;;;;;;;;;;;;4966351;28;19917;-88
2023/12/28 03:14:36;;;;;;;;;;;;;;;;;;4970955;28;20390;-87
2023/12/28 03:17:01;;;;;;;;;;;;;;;;;;4972331;28;19922;-86
2023/12/28 03:19:29;;;;;;;;;;;;;;;;;;4969728;28;20415;-89
2023/12/28 03:21:54;;;;;;;;;;;;;;;;;;4975471;28;19918;-87
2023/12/28 03:24:19;;;;;;;;;;;;;;;;;;4977143;28;19922;-88
2023/12/28 03:26:46;;;;;;;;;;;;;;;;;;4977605;28;20005;-87
2023/12/28 03:29:11;;;;;;;;;;;;;;;;;;4980465;28;19914;-88
2023/12/28 03:31:37;;;;;;;;;;;;;;;;;;4983001;28;19981;-88
2023/12/28 03:34:02;;;;;;;;;;;;;;;;;;4977349;28;20517;-87
2023/12/28 03:36:27;;;;;;;;;;;;;;;;;;4990353;28;19913;-90
2023/12/28 03:38:52;;;;;;;;;;;;;;;;;;4973215;28;19953;-89
2023/12/28 03:41:18;;;;;;;;;;;;;;;;;;4985609;28;19921;-89
2023/12/28 03:43:43;;;;;;;;;;;;;;;;;;4989429;28;19926;-87
2023/12/28 03:46:13;;;;;;;;;;;;;;;;;;4992836;28;19996;-88
2023/12/28 03:48:38;;;;;;;;;;;;;;;;;;4994271;28;20409;-89
2023/12/28 03:51:03;;;;;;;;;;;;;;;;;;4994488;28;20004;-86
2023/12/28 03:53:28;;;;;;;;;;;;;;;;;;4982012;28;19948;-87
2023/12/28 03:55:54;;;;;;;;;;;;;;;;;;5013420;28;19997;-87
2023/12/28 03:58:19;;;;;;;;;;;;;;;;;;4997338;28;19914;-87
2023/12/28 04:00:44;;;;;;;;;;;;;;;;;;4990449;28;19933;-85
2023/12/28 04:03:09;;;;;;;;;;;;;;;;;;5010396;28;19929;-84
2023/12/28 04:05:35;;;;;;;;;;;;;;;;;;4989885;28;20638;-86
2023/12/28 04:08:01;;;;;;;;;;;;;;;;;;4988257;28;19918;-87
2023/12/28 04:10:26;;;;;;;;;;;;;;;;;;4982077;28;20244;-87
2023/12/28 04:12:55;;;;;;;;;;;;;;;;;;4992121;28;20377;-86
2023/12/28 04:15:20;;;;;;;;;;;;;;;;;;4993808;28;20040;-90
2023/12/28 04:17:45;;;;;;;;;;;;;;;;;;4994239;28;19922;-87
2023/12/28 04:20:11;;;;;;;;;;;;;;;;;;4982085;28;19913;-87
2023/12/28 04:22:36;;;;;;;;;;;;;;;;;;4975863;28;21711;-86
2023/12/28 04:25:01;;;;;;;;;;;;;;;;;;4977036;28;19918;-85
2023/12/28 04:27:26;;;;;;;;;;;;;;;;;;4976412;28;20278;-88
2023/12/28 04:29:52;;;;;;;;;;;;;;;;;;4993513;28;19952;-85
2023/12/28 04:32:17;;;;;;;;;;;;;;;;;;4993796;28;19921;-86
2023/12/28 04:34:43;;;;;;;;;;;;;;;;;;4992415;28;20201;-89
2023/12/28 04:37:08;;;;;;;;;;;;;;;;;;4976801;28;20001;-88
2023/12/28 04:39:36;;;;;;;;;;;;;;;;;;4972553;28;20476;-89
2023/12/28 04:42:04;;;;;;;;;;;;;;;;;;4967019;28;19926;-85
2023/12/28 04:44:29;;;;;;;;;;;;;;;;;;4977114;28;21409;-86
2023/12/28 04:46:59;;;;;;;;;;;;;;;;;;5006877;28;19917;-86
2023/12/28 04:49:24;;;;;;;;;;;;;;;;;;4973441;28;19922;-87
2023/12/28 04:51:49;;;;;;;;;;;;;;;;;;5001269;28;19918;-85
2023/12/28 04:54:17;;;;;;;;;;;;;;;;;;4981385;28;19925;-87
2023/12/28 04:56:43;;;;;;;;;;;;;;;;;;4954988;28;19933;-88
2023/12/28 04:59:08;;;;;;;;;;;;;;;;;;4992307;28;19965;-89
2023/12/28 05:01:33;;;;;;;;;;;;;;;;;;4992804;28;19968;-90
2023/12/28 05:03:59;;;;;;;;;;;;;;;;;;4993414;28;20004;-87
2023/12/28 05:06:24;;;;;;;;;;;;;;;;;;5000982;28;19941;-88
2023/12/28 05:08:49;;;;;;;;;;;;;;;;;;4976620;28;20232;-87
2023/12/28 05:11:18;;;;;;;;;;;;;;;;;;4993695;28;20083;-88
2023/12/28 05:13:43;;;;;;;;;;;;;;;;;;4993224;28;19925;-87
2023/12/28 05:16:08;;;;;;;;;;;;;;;;;;4961930;28;19936;-87
2023/12/28 05:18:34;;;;;;;;;;;;;;;;;;4991973;28;19913;-85
2023/12/28 05:21:00;;;;;;;;;;;;;;;;;;4993383;28;19999;-86
2023/12/28 05:23:25;;;;;;;;;;;;;;;;;;4990609;28;19917;-87
2023/12/28 05:25:50;;;;;;;;;;;;;;;;;;4957905;28;20302;-88
2023/12/28 05:28:16;;;;;;;;;;;;;;;;;;4969047;28;19913;-88
2023/12/28 05:30:41;;;;;;;;;;;;;;;;;;4991483;28;20259;-86
2023/12/28 05:33:07;;;;;;;;;;;;;;;;;;4988773;28;19957;-90
2023/12/28 05:35:32;;;;;;;;;;;;;;;;;;4973592;28;19921;-88
2023/12/28 05:37:58;;;;;;;;;;;;;;;;;;4990043;28;19949;-86
2023/12/28 05:40:23;;;;;;;;;;;;;;;;;;4988241;28;19925;-87
2023/12/28 05:42:52;;;;;;;;;;;;;;;;;;4978051;28;19964;-90
2023/12/28 05:45:17;;;;;;;;;;;;;;;;;;4990006;28;19918;-89
2023/12/28 05:47:42;;;;;;;;;;;;;;;;;;4992724;28;20002;-86
2023/12/28 05:50:10;;;;;;;;;;;;;;;;;;4991120;28;19917;-88
2023/12/28 05:52:36;;;;;;;;;;;;;;;;;;4995338;28;19914;-88
2023/12/28 05:55:01;;;;;;;;;;;;;;;;;;4977247;28;19971;-87
2023/12/28 05:57:31;;;;;;;;;;;;;;;;;;4975879;28;19925;-87
2023/12/28 05:59:56;;;;;;;;;;;;;;;;;;4982551;28;19924;-90
2023/12/28 06:02:21;;;;;;;;;;;;;;;;;;5001205;28;19918;-87
2023/12/28 06:04:49;;;;;;;;;;;;;;;;;;5007844;28;19941;-86
2023/12/28 06:07:17;;;;;;;;;;;;;;;;;;4990705;28;19924;-87
2023/12/28 06:09:44;;;;;;;;;;;;;;;;;;4975378;28;19918;-87
2023/12/28 06:12:10;;;;;;;;;;;;;;;;;;4991242;28;20379;-88
2023/12/28 06:14:38;;;;;;;;;;;;;;;;;;4975929;28;19929;-87
2023/12/28 06:17:03;;;;;;;;;;;;;;;;;;4982268;28;19929;-87
2023/12/28 06:19:28;;;;;;;;;;;;;;;;;;4975173;28;19917;-87
2023/12/28 06:21:58;;;;;;;;;;;;;;;;;;4984008;28;19922;-87
2023/12/28 06:24:39;;;;;;;;;;;;;;;;;;4991131;28;19925;-85
2023/12/28 06:27:36;;;;;;;;;;;;;;;;;;4972684;28;20339;-88
2023/12/28 06:30:04;;;;;;;;;;;;;;;;;;4975537;28;20262;-86
2023/12/28 06:32:37;;;;;;;;;;;;;;;;;;4975825;28;19965;-89
2023/12/28 06:35:08;;;;;;;;;;;;;;;;;;4990116;28;20016;-86
2023/12/28 06:37:43;;;;;;;;;;;;;;;;;;4993361;28;20476;-89
2023/12/28 06:40:21;;;;;;;;;;;;;;;;;;4993652;28;19925;-87
2023/12/28 06:42:47;;;;;;;;;;;;;;;;;;4974991;28;19995;-85
2023/12/28 06:45:14;;;;;;;;;;;;;;;;;;4973692;28;20312;-88
2023/12/28 06:50:56;;;;;;;;;;;;;;;;;;4992354;28;19940;-86
2023/12/28 06:53:22;;;;;;;;;;;;;;;;;;4975023;28;19914;-88
2023/12/28 06:55:48;;;;;;;;;;;;;;;;;;4990999;28;19929;-86
2023/12/28 06:58:13;;;;;;;;;;;;;;;;;;4976368;28;19918;-85
2023/12/28 07:04:09;;;;;;;;;;;;;;;;;;4990834;28;19936;-87
2023/12/28 07:06:40;;;;;;;;;;;;;;;;;;4989146;28;20041;-87
2023/12/28 07:15:50;;;;;;;;;;;;;;;;;;4937455;28;19973;-88
2023/12/28 07:18:28;;;;;;;;;;;;;;;;;;4991270;28;19922;-88
2023/12/28 07:21:11;;;;;;;;;;;;;;;;;;4977934;28;19917;-88
2023/12/28 07:23:37;;;;;;;;;;;;;;;;;;4995273;28;19922;-84
2023/12/28 07:26:05;;;;;;;;;;;;;;;;;;4996998;28;19925;-87
2023/12/28 07:28:31;;;;;;;;;;;;;;;;;;4997857;28;19917;-89
2023/12/28 07:30:56;;;;;;;;;;;;;;;;;;4993478;28;19945;-87
2023/12/28 07:33:39;;;;;;;;;;;;;;;;;;4981821;28;20324;-86
2023/12/28 07:36:06;;;;;;;;;;;;;;;;;;4980696;28;19922;-89
2023/12/28 07:38:55;;;;;;;;;;;;;;;;;;4988485;28;19957;-87
2023/12/28 07:41:20;;;;;;;;;;;;;;;;;;4983848;28;19988;-88
2023/12/28 07:44:04;;;;;;;;;;;;;;;;;;4982975;28;19925;-88
2023/12/28 07:46:29;;;;;;;;;;;;;;;;;;4977618;28;19976;-85
2023/12/28 07:48:55;;;;;;;;;;;;;;;;;;5010032;28;20536;-86
2023/12/28 07:51:20;;;;;;;;;;;;;;;;;;4978971;28;19914;-85
2023/12/28 07:53:45;;;;;;;;;;;;;;;;;;4947400;28;19966;-87
2023/12/28 07:56:11;;;;;;;;;;;;;;;;;;4972663;28;19922;-88
2023/12/28 07:58:40;;;;;;;;;;;;;;;;;;4972599;28;19922;-86
2023/12/28 08:01:05;;;;;;;;;;;;;;;;;;4975063;28;20279;-88
2023/12/28 08:03:30;;;;;;;;;;;;;;;;;;4976002;28;19957;-86
2023/12/28 08:05:58;;;;;;;;;;;;;;;;;;4991862;28;19995;-86
2023/12/28 08:08:24;;;;;;;;;;;;;;;;;;4978420;28;19953;-84
2023/12/28 08:10:51;;;;;;;;;;;;;;;;;;5003715;28;19960;-85
2023/12/28 08:13:17;;;;;;;;;;;;;;;;;;4973519;28;19931;-86
2023/12/28 08:15:43;;;;;;;;;;;;;;;;;;4989652;28;20243;-85
2023/12/28 08:18:08;;;;;;;;;;;;;;;;;;4978797;28;20058;-86
2023/12/28 08:20:33;;;;;;;;;;;;;;;;;;4988184;28;20230;-85
2023/12/28 08:22:58;;;;;;;;;;;;;;;;;;4989682;28;19929;-86
2023/12/28 08:25:24;;;;;;;;;;;;;;;;;;4993906;28;19956;-84
2023/12/28 08:27:49;;;;;;;;;;;;;;;;;;4978322;28;19922;-87
2023/12/28 08:30:14;;;;;;;;;;;;;;;;;;4986472;28;19937;-87
2023/12/28 08:32:40;;;;;;;;;;;;;;;;;;4957819;28;19918;-86
2023/12/28 08:35:06;;;;;;;;;;;;;;;;;;5011013;28;20009;-87
2023/12/28 08:37:32;;;;;;;;;;;;;;;;;;4979993;28;20340;-86
2023/12/28 08:39:59;;;;;;;;;;;;;;;;;;4993832;28;19933;-84
2023/12/28 08:42:33;;;;;;;;;;;;;;;;;;4960325;28;19937;-87
2023/12/28 08:45:00;;;;;;;;;;;;;;;;;;4977240;28;20295;-87
2023/12/28 08:47:25;;;;;;;;;;;;;;;;;;4959115;28;19922;-88
2023/12/28 08:49:50;;;;;;;;;;;;;;;;;;5001862;28;20017;-82
2023/12/28 08:52:16;;;;;;;;;;;;;;;;;;4946911;28;19925;-86
2023/12/28 08:54:41;;;;;;;;;;;;;;;;;;4974949;28;20000;-87
2023/12/28 08:57:07;;;;;;;;;;;;;;;;;;4991871;28;20225;-87
2023/12/28 08:59:32;;;;;;;;;;;;;;;;;;4986791;28;20548;-89
2023/12/28 09:02:01;;;;;;;;;;;;;;;;;;4974897;28;20001;-84
2023/12/28 09:04:29;;;;;;;;;;;;;;;;;;4972528;28;19950;-89
2023/12/28 09:06:55;;;;;;;;;;;;;;;;;;4988972;28;20029;-82
2023/12/28 09:09:20;;;;;;;;;;;;;;;;;;4984157;28;20000;-84
2023/12/28 09:11:45;;;;;;;;;;;;;;;;;;4958167;28;20076;-84
2023/12/28 09:14:11;;;;;;;;;;;;;;;;;;4973349;28;19917;-87
2023/12/28 09:16:41;;;;;;;;;;;;;;;;;;4969500;28;19969;-86
2023/12/28 09:19:07;;;;;;;;;;;;;;;;;;4950937;28;20332;-84
2023/12/28 09:21:32;;;;;;;;;;;;;;;;;;4956091;28;19924;-84
2023/12/28 09:23:57;;;;;;;;;;;;;;;;;;4992359;28;20001;-88
2023/12/28 09:26:23;;;;;;;;;;;;;;;;;;4973418;28;19953;-89
2023/12/28 09:28:49;;;;;;;;;;;;;;;;;;4990910;28;19924;-86
2023/12/28 09:31:14;;;;;;;;;;;;;;;;;;4958345;28;19913;-86
2023/12/28 09:33:42;;;;;;;;;;;;;;;;;;4975012;28;20246;-88
2023/12/28 09:36:22;;;;;;;;;;;;;;;;;;4975528;28;20591;-88
2023/12/28 09:38:56;;;;;;;;;;;;;;;;;;4975781;28;19937;-85
2023/12/28 09:41:23;;;;;;;;;;;;;;;;;;4975645;28;19917;-88
2023/12/28 09:43:55;;;;;;;;;;;;;;;;;;4991026;28;19918;-86
2023/12/28 09:46:26;;;;;;;;;;;;;;;;;;4974399;28;22421;-84
2023/12/28 09:48:57;;;;;;;;;;;;;;;;;;4957491;28;19917;-88
2023/12/28 09:51:30;;;;;;;;;;;;;;;;;;4991152;28;20589;-85
2023/12/28 09:53:55;;;;;;;;;;;;;;;;;;4987387;28;20016;-87
2023/12/28 09:56:20;;;;;;;;;;;;;;;;;;4974629;28;21157;-85
2023/12/28 09:58:46;;;;;;;;;;;;;;;;;;4973779;28;19924;-85
2023/12/28 10:01:11;;;;;;;;;;;;;;;;;;4973959;28;19921;-87
2023/12/28 10:03:38;;;;;;;;;;;;;;;;;;4972066;28;20038;-86
2023/12/28 10:06:04;;;;;;;;;;;;;;;;;;4972245;28;20009;-87
2023/12/28 10:08:30;;;;;;;;;;;;;;;;;;4978839;28;19968;-90
2023/12/28 10:10:58;;;;;;;;;;;;;;;;;;4969438;28;19935;-88
2023/12/28 10:13:26;;;;;;;;;;;;;;;;;;4973264;28;19961;-84
2023/12/28 10:15:52;;;;;;;;;;;;;;;;;;4995142;28;19965;-86
2023/12/28 10:18:22;;;;;;;;;;;;;;;;;;4989834;28;19918;-86
2023/12/28 10:20:48;;;;;;;;;;;;;;;;;;4969093;28;19913;-84
2023/12/28 10:23:16;;;;;;;;;;;;;;;;;;4973560;28;19925;-86
2023/12/28 10:25:45;;;;;;;;;;;;;;;;;;4983552;28;20371;-90
2023/12/28 10:28:19;;;;;;;;;;;;;;;;;;4990361;28;20025;-88
2023/12/28 10:30:45;;;;;;;;;;;;;;;;;;4985928;28;20408;-84
2023/12/28 10:33:10;;;;;;;;;;;;;;;;;;4989948;28;19917;-87
2023/12/28 10:35:36;;;;;;;;;;;;;;;;;;5003216;28;19925;-86
2023/12/28 10:38:05;;;;;;;;;;;;;;;;;;4974225;28;19921;-86
2023/12/28 10:40:32;;;;;;;;;;;;;;;;;;4962429;28;19930;-86
2023/12/28 10:42:58;;;;;;;;;;;;;;;;;;4966705;28;19981;-85
2023/12/28 10:45:24;;;;;;;;;;;;;;;;;;4972131;28;20252;-85
2023/12/28 10:47:49;;;;;;;;;;;;;;;;;;4998911;28;19928;-86
2023/12/28 10:50:14;;;;;;;;;;;;;;;;;;4988913;28;19971;-88
2023/12/28 10:52:40;;;;;;;;;;;;;;;;;;4969754;28;19922;-85
2023/12/28 10:55:06;;;;;;;;;;;;;;;;;;4957217;28;19929;-85
2023/12/28 10:57:32;;;;;;;;;;;;;;;;;;4974200;28;19918;-87
2023/12/28 10:59:57;;;;;;;;;;;;;;;;;;4990485;28;19944;-87
2023/12/28 11:02:24;;;;;;;;;;;;;;;;;;4988831;28;19986;-88
2023/12/28 11:04:52;;;;;;;;;;;;;;;;;;4972910;28;19929;-87
2023/12/28 11:07:20;;;;;;;;;;;;;;;;;;4999472;28;19933;-84
2023/12/28 11:09:45;;;;;;;;;;;;;;;;;;4991548;28;19914;-85
2023/12/28 11:12:11;;;;;;;;;;;;;;;;;;4976569;28;19957;-86
2023/12/28 11:14:37;;;;;;;;;;;;;;;;;;4985845;28;20702;-86
2023/12/28 11:17:02;;;;;;;;;;;;;;;;;;4975031;28;20358;-86
2023/12/28 11:19:30;;;;;;;;;;;;;;;;;;4955522;28;19941;-85
2023/12/28 11:21:56;;;;;;;;;;;;;;;;;;4976155;28;19914;-84
2023/12/28 11:24:42;;;;;;;;;;;;;;;;;;4982450;28;19968;-89
2023/12/28 11:27:08;;;;;;;;;;;;;;;;;;4967153;28;19917;-84
2023/12/28 11:29:34;;;;;;;;;;;;;;;;;;4982131;28;19925;-86
2023/12/28 11:32:00;;;;;;;;;;;;;;;;;;4967758;28;19922;-87
2023/12/28 11:34:27;;;;;;;;;;;;;;;;;;4996282;28;19929;-84
2023/12/28 11:36:55;;;;;;;;;;;;;;;;;;4964853;28;19922;-85
2023/12/28 11:39:21;;;;;;;;;;;;;;;;;;4987402;28;19965;-85
2023/12/28 11:41:52;;;;;;;;;;;;;;;;;;4984642;28;20138;-86
2023/12/28 11:44:17;;;;;;;;;;;;;;;;;;4979417;28;19926;-87
2023/12/28 11:46:46;;;;;;;;;;;;;;;;;;4975956;28;19953;-86
2023/12/28 11:49:13;;;;;;;;;;;;;;;;;;4988722;28;19914;-85
2023/12/28 11:51:42;;;;;;;;;;;;;;;;;;4989035;28;19914;-86
2023/12/28 11:54:08;;;;;;;;;;;;;;;;;;4981379;28;19925;-88
2023/12/28 11:56:34;;;;;;;;;;;;;;;;;;4974445;28;19972;-86
2023/12/28 11:59:02;;;;;;;;;;;;;;;;;;4977314;28;19925;-84
2023/12/28 12:04:16;;;;;;;;;;;;;;;;;;4991780;28;20049;-86
2023/12/28 12:06:42;;;;;;;;;;;;;;;;;;4989597;28;20387;-88
2023/12/28 12:09:10;;;;;;;;;;;;;;;;;;4960278;28;19921;-85
2023/12/28 12:11:39;;;;;;;;;;;;;;;;;;4988579;28;19977;-86
2023/12/28 12:14:08;;;;;;;;;;;;;;;;;;5000229;28;19922;-84
2023/12/28 12:16:33;;;;;;;;;;;;;;;;;;4992179;28;20009;-84
2023/12/28 12:19:00;;;;;;;;;;;;;;;;;;4975216;28;20447;-86
2023/12/28 12:21:29;;;;;;;;;;;;;;;;;;4993170;28;20048;-87
2023/12/28 12:23:55;;;;;;;;;;;;;;;;;;4992954;28;19933;-86
2023/12/28 12:26:21;;;;;;;;;;;;;;;;;;4977041;28;19953;-88
2023/12/28 12:28:46;;;;;;;;;;;;;;;;;;4974359;28;19914;-86
2023/12/28 12:31:11;;;;;;;;;;;;;;;;;;4972806;28;19929;-88
2023/12/28 12:33:40;;;;;;;;;;;;;;;;;;4969272;28;19922;-89
2023/12/28 12:36:16;;;;;;;;;;;;;;;;;;4992844;28;19945;-88
2023/12/28 12:38:41;;;;;;;;;;;;;;;;;;4959291;28;19958;-87
2023/12/28 12:41:07;;;;;;;;;;;;;;;;;;4958691;28;19949;-87
2023/12/28 12:43:32;;;;;;;;;;;;;;;;;;4976553;28;19914;-86
2023/12/28 12:45:57;;;;;;;;;;;;;;;;;;4976643;28;20263;-85
2023/12/28 12:48:24;;;;;;;;;;;;;;;;;;4977574;28;19929;-84
2023/12/28 12:50:53;;;;;;;;;;;;;;;;;;4993419;28;19922;-85
2023/12/28 12:53:22;;;;;;;;;;;;;;;;;;4979853;28;19924;-86
2023/12/28 12:55:58;;;;;;;;;;;;;;;;;;4976520;28;19914;-83
2023/12/28 12:58:33;;;;;;;;;;;;;;;;;;4983091;28;19965;-85
2023/12/28 13:00:59;;;;;;;;;;;;;;;;;;4996716;28;19972;-86
2023/12/28 13:03:24;;;;;;;;;;;;;;;;;;4960668;28;19932;-85
2023/12/28 13:05:52;;;;;;;;;;;;;;;;;;5001683;28;19922;-85
2023/12/28 13:08:19;;;;;;;;;;;;;;;;;;5001447;28;19918;-85
2023/12/28 13:10:44;;;;;;;;;;;;;;;;;;4992061;28;19926;-87
2023/12/28 13:13:18;;;;;;;;;;;;;;;;;;4980951;28;19953;-88
2023/12/28 13:15:43;;;;;;;;;;;;;;;;;;4964239;28;19969;-89
2023/12/28 13:18:09;;;;;;;;;;;;;;;;;;4970780;28;19918;-89
2023/12/28 13:20:34;;;;;;;;;;;;;;;;;;4959174;28;19929;-86
2023/12/28 13:23:00;;;;;;;;;;;;;;;;;;4981516;28;20072;-88
2023/12/28 13:25:25;;;;;;;;;;;;;;;;;;4973979;28;19983;-86
2023/12/28 13:27:50;;;;;;;;;;;;;;;;;;4989300;28;19956;-84
2023/12/28 13:30:21;;;;;;;;;;;;;;;;;;4990199;28;20021;-87
2023/12/28 13:32:46;;;;;;;;;;;;;;;;;;4983597;28;19914;-85
2023/12/28 13:35:11;;;;;;;;;;;;;;;;;;4990966;28;19927;-87
2023/12/28 13:37:40;;;;;;;;;;;;;;;;;;4975733;28;19922;-84
2023/12/28 13:40:06;;;;;;;;;;;;;;;;;;4990107;28;19956;-85
2023/12/28 13:42:34;;;;;;;;;;;;;;;;;;4992622;28;20410;-85
2023/12/28 13:45:02;;;;;;;;;;;;;;;;;;4975706;28;19961;-84
2023/12/28 13:47:28;;;;;;;;;;;;;;;;;;4990742;28;19980;-88
2023/12/28 13:49:54;;;;;;;;;;;;;;;;;;4973478;28;20388;-88
2023/12/28 13:52:19;;;;;;;;;;;;;;;;;;4974943;28;19922;-87
2023/12/28 13:54:44;;;;;;;;;;;;;;;;;;4993587;28;19925;-87
2023/12/28 13:57:10;;;;;;;;;;;;;;;;;;4998740;28;19917;-87
2023/12/28 13:59:35;;;;;;;;;;;;;;;;;;4989763;28;19945;-85
2023/12/28 14:02:00;;;;;;;;;;;;;;;;;;5005305;28;19998;-86
2023/12/28 14:04:26;;;;;;;;;;;;;;;;;;4976256;28;19914;-87
2023/12/28 14:06:54;;;;;;;;;;;;;;;;;;4975192;28;19918;-87
2023/12/28 14:09:21;;;;;;;;;;;;;;;;;;5001493;28;19972;-84
2023/12/28 14:11:47;;;;;;;;;;;;;;;;;;4999444;28;19928;-84
2023/12/28 14:14:14;;;;;;;;;;;;;;;;;;5002529;28;19918;-82
2023/12/28 14:16:40;;;;;;;;;;;;;;;;;;4982477;28;20000;-83
2023/12/28 14:19:07;;;;;;;;;;;;;;;;;;5005024;28;20304;-84
2023/12/28 14:21:33;;;;;;;;;;;;;;;;;;4977265;28;19921;-84
2023/12/28 14:24:02;;;;;;;;;;;;;;;;;;4980194;28;19929;-85
2023/12/28 14:26:27;;;;;;;;;;;;;;;;;;4955381;28;19917;-86
2023/12/28 14:28:55;;;;;;;;;;;;;;;;;;4967021;28;19914;-84
2023/12/28 14:31:25;;;;;;;;;;;;;;;;;;4981259;28;19934;-85
2023/12/28 14:33:50;;;;;;;;;;;;;;;;;;4997358;28;19960;-86
2023/12/28 14:36:17;;;;;;;;;;;;;;;;;;4983988;28;19917;-86
2023/12/28 14:38:43;;;;;;;;;;;;;;;;;;4990850;28;19941;-84
2023/12/28 14:41:13;;;;;;;;;;;;;;;;;;4982135;28;19917;-85
2023/12/28 14:43:39;;;;;;;;;;;;;;;;;;4994001;28;19913;-86
2023/12/28 14:46:04;;;;;;;;;;;;;;;;;;4980384;28;19929;-85
2023/12/28 14:48:32;;;;;;;;;;;;;;;;;;4998770;28;19921;-84
2023/12/28 14:50:58;;;;;;;;;;;;;;;;;;5000178;28;19921;-85
2023/12/28 14:53:26;;;;;;;;;;;;;;;;;;4995689;28;20025;-87
2023/12/28 14:55:54;;;;;;;;;;;;;;;;;;4960202;28;19928;-88
2023/12/28 14:58:33;;;;;;;;;;;;;;;;;;;;;
2023/12/28 15:01:11;;;;;;;;;;;;;;;;;;4977619;28;20006;-88
2023/12/28 15:36:09;;;;;;;;;;;;;;;;;;4967600;28;20411;-88
2023/12/28 15:38:42;;;;;;;;;;;;;;;;;;4951578;28;19941;-86
2023/12/28 15:47:30;;;;;;;;;;;;;;;;;;4950612;28;19933;-85
2023/12/28 15:50:00;;;;;;;;;;;;;;;;;;4937623;28;19937;-88
2023/12/28 16:15:20;;;;;;;;;;;;;;;;;;4971759;28;20145;-86
2023/12/28 16:21:01;;;;;;;;;;;;;;;;;;4937628;28;19922;-88
2023/12/28 16:26:45;;;;;;;;;;;;;;;;;;5010136;22;20223;-71
2023/12/28 16:29:10;;;;;;;;;;;;;;;;;;4979899;28;19929;-70
2023/12/28 16:31:35;;;;;;;;;;;;;;;;;;4990982;28;19975;-71
2023/12/28 16:34:01;;;;;;;;;;;;;;;;;;5007399;28;19922;-71
2023/12/28 16:36:29;;;;;;;;;;;;;;;;;;4991584;28;19922;-69
2023/12/28 16:38:54;;;;;;;;;;;;;;;;;;4981490;28;19948;-69
2023/12/28 16:41:19;;;;;;;;;;;;;;;;;;5006620;28;21853;-72
2023/12/28 16:43:49;;;;;;;;;;;;;;;;;;5003101;28;19975;-68
2023/12/28 16:46:17;;;;;;;;;;;;;;;;;;5001381;28;20003;-73
2023/12/28 16:48:44;;;;;;;;;;;;;;;;;;4996280;28;20161;-72
2023/12/28 16:51:10;;;;;;;;;;;;;;;;;;5005732;28;19941;-72
2023/12/28 16:53:35;;;;;;;;;;;;;;;;;;4971036;28;20865;-71
2023/12/28 16:56:00;;;;;;;;;;;;;;;;;;5005411;28;19929;-70
2023/12/28 16:58:26;;;;;;;;;;;;;;;;;;4969773;28;20277;-73
2023/12/28 17:00:51;;;;;;;;;;;;;;;;;;4964775;28;19993;-73
2023/12/28 17:03:17;;;;;;;;;;;;;;;;;;4973766;28;19970;-71
2023/12/28 17:05:42;;;;;;;;;;;;;;;;;;4988684;28;21556;-69
2023/12/28 17:08:10;;;;;;;;;;;;;;;;;;5004167;28;19921;-69
2023/12/28 17:10:39;;;;;;;;;;;;;;;;;;4976200;28;19921;-68
2023/12/28 17:13:05;;;;;;;;;;;;;;;;;;4975200;28;20119;-70
2023/12/28 17:15:32;;;;;;;;;;;;;;;;;;4964296;28;19917;-72
2023/12/28 17:17:57;;;;;;;;;;;;;;;;;;4973525;28;19957;-70
2023/12/28 17:20:23;;;;;;;;;;;;;;;;;;4970593;28;20359;-69
2023/12/28 17:22:48;;;;;;;;;;;;;;;;;;4955243;28;20035;-69
2023/12/28 17:25:19;;;;;;;;;;;;;;;;;;4990958;28;20004;-69
2023/12/28 17:27:44;;;;;;;;;;;;;;;;;;4986724;28;19940;-70
2023/12/28 17:30:10;;;;;;;;;;;;;;;;;;4971744;28;19917;-70
2023/12/28 17:32:35;;;;;;;;;;;;;;;;;;4980310;28;19944;-70
2023/12/28 17:35:01;;;;;;;;;;;;;;;;;;4987740;28;19928;-70
2023/12/28 17:37:26;;;;;;;;;;;;;;;;;;4949121;28;19922;-70
2023/12/28 17:39:51;;;;;;;;;;;;;;;;;;4988565;28;19972;-71
2023/12/28 17:42:17;;;;;;;;;;;;;;;;;;4982994;28;20032;-69
2023/12/28 17:44:45;;;;;;;;;;;;;;;;;;4989746;28;19932;-72
2023/12/28 17:47:11;;;;;;;;;;;;;;;;;;5003390;28;19925;-69
2023/12/28 17:49:37;;;;;;;;;;;;;;;;;;4989744;28;19921;-70
2023/12/28 17:52:03;;;;;;;;;;;;;;;;;;4989374;28;19949;-71
2023/12/28 17:54:28;;;;;;;;;;;;;;;;;;4991419;28;19921;-69
2023/12/28 17:56:56;;;;;;;;;;;;;;;;;;4984596;28;19917;-70
2023/12/28 17:59:21;;;;;;;;;;;;;;;;;;4982258;28;20510;-71
2023/12/28 18:01:47;;;;;;;;;;;;;;;;;;4991935;28;19917;-71
2023/12/28 18:04:12;;;;;;;;;;;;;;;;;;4983455;28;20119;-69
2023/12/28 18:06:37;;;;;;;;;;;;;;;;;;4987473;28;19917;-70
2023/12/28 18:09:03;;;;;;;;;;;;;;;;;;4989890;28;19992;-70